Time;durP1;ratioP1;P1;durP2;ratioP2;P2;SDS_P1;SDS_P2;PMS_P1;PMS_P2;Temp;Humidity;BMP_temperature;BMP_pressure;BME280_temperature;BME280_humidity;BME280_pressure;Samples;Min_cycle;Max_cycle;Signal;HPM_P1;HPM_P2
2022/07/31 00:01:53;;;;;;;2.20;2.00;;;;;;;19.31;98.28;96628.84;5022006;28;20242;-80
2022/07/31 00:04:23;;;;;;;3.78;2.25;;;;;;;19.30;99.21;96625.28;5027775;28;20265;-80
2022/07/31 00:06:50;;;;;;;3.13;2.45;;;;;;;19.18;99.02;96622.84;5026078;28;20199;-81
2022/07/31 00:09:19;;;;;;;2.50;2.20;;;;;;;19.16;97.89;96621.47;5021599;28;20222;-81
2022/07/31 00:11:46;;;;;;;3.03;2.30;;;;;;;19.10;98.73;96626.16;5020274;28;20215;-81
2022/07/31 00:14:13;;;;;;;3.35;2.38;;;;;;;19.08;100.00;96622.03;5026618;28;20190;-80
2022/07/31 00:16:40;;;;;;;5.38;3.05;;;;;;;19.06;100.00;96618.75;5057869;28;20311;-80
2022/07/31 00:19:07;;;;;;;2.42;2.22;;;;;;;19.00;100.00;96620.69;5024979;28;20235;-81
2022/07/31 00:21:34;;;;;;;2.22;2.03;;;;;;;19.00;100.00;96625.34;5016413;28;20203;-80
2022/07/31 00:24:01;;;;;;;5.28;2.40;;;;;;;18.98;99.39;96608.38;5023861;28;20217;-81
2022/07/31 00:26:30;;;;;;;3.10;2.22;;;;;;;19.01;99.49;96614.13;5027396;28;20270;-81
2022/07/31 00:28:57;;;;;;;4.20;2.40;;;;;;;19.00;98.95;96614.41;5026698;28;20281;-80
2022/07/31 00:31:24;;;;;;;2.95;2.20;;;;;;;18.98;99.03;96608.38;5044063;28;20211;-80
2022/07/31 00:33:51;;;;;;;2.83;2.27;;;;;;;18.86;100.00;96608.69;5027414;28;20294;-81
2022/07/31 00:36:18;;;;;;;2.97;2.50;;;;;;;18.82;100.00;96607.59;5027084;28;20284;-81
2022/07/31 00:38:45;;;;;;;2.47;2.20;;;;;;;18.81;100.00;96601.28;5025437;28;20238;-80
2022/07/31 00:41:13;;;;;;;3.43;2.40;;;;;;;18.76;100.00;96604.06;5024459;28;20203;-80
2022/07/31 00:43:41;;;;;;;2.80;2.40;;;;;;;18.86;100.00;96601.31;5012294;28;20200;-81
2022/07/31 00:46:08;;;;;;;2.50;2.30;;;;;;;18.85;99.69;96601.56;5036607;28;20679;-80
2022/07/31 00:48:35;;;;;;;4.20;2.20;;;;;;;18.85;99.03;96599.66;5023118;28;20231;-80
2022/07/31 00:51:03;;;;;;;5.77;2.20;;;;;;;18.93;99.10;96602.94;5021521;28;20294;-81
2022/07/31 00:53:30;;;;;;;3.30;2.50;;;;;;;18.97;99.64;96599.34;5022645;28;20199;-81
2022/07/31 00:55:57;;;;;;;2.47;2.27;;;;;;;19.01;100.00;96605.91;5014359;28;20226;-80
2022/07/31 00:58:24;;;;;;;2.70;2.50;;;;;;;18.96;100.00;96602.38;5054012;28;20256;-80
2022/07/31 01:00:53;;;;;;;5.60;2.33;;;;;;;18.97;100.00;96604.03;5026219;28;20198;-80
2022/07/31 01:03:20;;;;;;;3.00;2.25;;;;;;;18.89;100.00;96603.47;5026150;28;20300;-80
2022/07/31 01:05:47;;;;;;;2.93;2.23;;;;;;;18.84;100.00;96606.22;5032497;28;20195;-80
2022/07/31 01:08:14;;;;;;;4.80;2.10;;;;;;;18.78;100.00;96604.59;5024868;28;20207;-80
2022/07/31 01:10:49;;;;;;;5.22;2.45;;;;;;;18.75;100.00;96607.88;5022820;28;20249;-81
2022/07/31 01:13:25;;;;;;;4.07;2.50;;;;;;;18.81;100.00;96606.78;5023972;28;20206;-80
2022/07/31 01:15:55;;;;;;;7.47;2.22;;;;;;;18.87;100.00;96604.88;5026166;28;20214;-80
2022/07/31 01:18:24;;;;;;;3.83;2.30;;;;;;;18.83;100.00;96598.28;5021338;28;20207;-81
2022/07/31 01:20:57;;;;;;;3.70;2.40;;;;;;;18.75;100.00;96596.94;5024384;28;20213;-80
2022/07/31 01:24:06;;;;;;;3.83;2.40;;;;;;;18.67;100.00;96605.72;5021961;28;20270;-81
2022/07/31 01:26:56;;;;;;;6.03;2.40;;;;;;;18.63;100.00;96603.81;5011857;28;20293;-80
2022/07/31 01:29:28;;;;;;;3.43;2.50;;;;;;;18.64;100.00;96595.31;5017931;28;20220;-80
2022/07/31 01:32:02;;;;;;;2.57;2.37;;;;;;;18.69;100.00;96598.06;5059363;28;20223;-80
2022/07/31 01:34:37;;;;;;;4.23;2.30;;;;;;;18.70;100.00;96596.13;5038967;28;20302;-81
2022/07/31 01:37:14;;;;;;;3.20;2.27;;;;;;;18.67;100.00;96592.03;5037627;28;20202;-81
2022/07/31 01:39:46;;;;;;;3.43;2.20;;;;;;;18.62;100.00;96589.31;5020262;28;20208;-81
2022/07/31 01:42:16;;;;;;;2.60;2.40;;;;;;;18.71;100.00;96587.66;5019851;28;20282;-80
2022/07/31 01:44:48;;;;;;;4.17;2.30;;;;;;;18.72;100.00;96577.50;5021907;28;20218;-81
2022/07/31 01:47:17;;;;;;;4.37;2.20;;;;;;;18.60;100.00;96572.34;5025508;28;20289;-81
2022/07/31 01:49:46;;;;;;;2.67;2.27;;;;;;;18.56;100.00;96576.69;5018476;28;20273;-80
2022/07/31 01:52:14;;;;;;;2.63;2.43;;;;;;;18.54;100.00;96578.91;5016651;28;20203;-80
2022/07/31 01:54:45;;;;;;;5.80;2.30;;;;;;;18.57;100.00;96583.00;5039697;28;20244;-80
2022/07/31 01:57:13;;;;;;;2.97;2.40;;;;;;;18.46;100.00;96582.16;5016372;28;20227;-80
2022/07/31 01:59:47;;;;;;;4.73;2.50;;;;;;;18.42;100.00;96584.63;5015883;28;20219;-80
2022/07/31 02:02:21;;;;;;;3.53;2.40;;;;;;;18.37;100.00;96589.31;5045914;28;20205;-80
2022/07/31 02:04:50;;;;;;;3.43;2.37;;;;;;;18.41;100.00;96584.91;5054249;28;20238;-81
2022/07/31 02:07:19;;;;;;;2.40;2.20;;;;;;;18.49;100.00;96587.09;5019166;28;20202;-80
2022/07/31 02:09:48;;;;;;;2.47;2.23;;;;;;;18.36;100.00;96579.44;5018748;28;20231;-81
2022/07/31 02:12:17;;;;;;;5.80;2.70;;;;;;;18.37;100.00;96592.03;5024192;28;20221;-80
2022/07/31 02:14:48;;;;;;;4.07;2.27;;;;;;;18.30;100.00;96589.56;5021228;28;20216;-81
2022/07/31 02:17:16;;;;;;;2.10;1.90;;;;;;;18.37;100.00;96589.31;5020418;28;20672;-81
2022/07/31 02:20:05;;;;;;;2.83;2.50;;;;;;;18.46;100.00;96593.91;5018350;28;20249;-80
2022/07/31 02:22:35;;;;;;;2.70;2.43;;;;;;;18.36;100.00;96590.38;5017818;28;20262;-81
2022/07/31 02:25:03;;;;;;;2.97;2.10;;;;;;;18.28;100.00;96588.19;5033796;28;20204;-80
2022/07/31 02:27:31;;;;;;;2.50;2.30;;;;;;;18.25;100.00;96595.03;5022397;28;20202;-80
2022/07/31 02:30:03;;;;;;;2.80;2.43;;;;;;;18.14;100.00;96594.19;5020814;28;20273;-81
2022/07/31 02:32:33;;;;;;;4.87;2.10;;;;;;;18.19;100.00;96600.78;5020021;28;20206;-81
2022/07/31 02:35:02;;;;;;;2.33;2.13;;;;;;;18.24;100.00;96589.81;5021924;28;20207;-81
2022/07/31 02:37:31;;;;;;;2.30;2.10;;;;;;;18.27;100.00;96592.84;5023993;28;20207;-81
2022/07/31 02:40:00;;;;;;;3.97;2.17;;;;;;;18.27;100.00;96590.13;5022293;28;20302;-80
2022/07/31 02:42:28;;;;;;;2.67;2.30;;;;;;;18.32;100.00;96592.00;5020469;28;20293;-81
2022/07/31 02:44:56;;;;;;;2.27;2.07;;;;;;;18.31;100.00;96595.84;5032769;28;20199;-81
2022/07/31 02:47:28;;;;;;;3.30;2.13;;;;;;;18.22;100.00;96597.47;5017320;28;20207;-81
2022/07/31 02:49:58;;;;;;;3.20;2.20;;;;;;;18.15;100.00;96593.09;5016070;28;20272;-80
2022/07/31 02:52:25;;;;;;;2.70;2.30;;;;;;;18.14;100.00;96594.19;5024162;28;20218;-80
2022/07/31 02:54:53;;;;;;;2.43;2.20;;;;;;;18.13;100.00;96591.72;5024228;28;20257;-80
2022/07/31 02:57:20;;;;;;;3.33;2.07;;;;;;;18.10;100.00;96589.56;5019204;28;20238;-80
2022/07/31 02:59:47;;;;;;;5.53;2.23;;;;;;;18.14;100.00;96586.00;5021923;28;20203;-81
2022/07/31 03:02:15;;;;;;;2.80;2.23;;;;;;;18.10;100.00;96589.56;5020135;28;20308;-81
2022/07/31 03:04:46;;;;;;;3.00;2.13;;;;;;;18.11;100.00;96597.50;5014142;28;20199;-81
2022/07/31 03:07:13;;;;;;;2.30;2.07;;;;;;;18.11;98.91;96592.03;5032300;28;20203;-80
2022/07/31 03:09:40;;;;;;;4.80;2.30;;;;;;;18.10;100.00;96595.84;5019053;28;20215;-81
2022/07/31 03:12:26;;;;;;;3.17;2.23;;;;;;;18.12;100.00;96593.63;5017407;28;20210;-81
2022/07/31 03:14:55;;;;;;;2.27;2.07;;;;;;;18.14;98.46;96593.38;5051048;28;20210;-81
2022/07/31 03:17:23;;;;;;;2.10;1.90;;;;;;;18.15;97.35;96595.84;5020630;28;20246;-80
2022/07/31 03:19:56;;;;;;;2.53;2.33;;;;;;;18.15;97.71;96603.22;5052957;28;20223;-81
2022/07/31 03:22:23;;;;;;;2.60;1.97;;;;;;;18.20;96.23;96602.41;5051888;28;20217;-81
2022/07/31 03:24:52;;;;;;;3.60;2.20;;;;;;;18.14;97.30;96591.47;5023235;28;20523;-81
2022/07/31 03:27:19;;;;;;;3.10;2.10;;;;;;;18.18;99.92;96596.41;5017287;28;20211;-81
2022/07/31 03:29:46;;;;;;;5.53;2.53;;;;;;;18.12;100.00;96599.09;5023795;28;20302;-81
2022/07/31 03:32:13;;;;;;;2.83;2.13;;;;;;;18.02;100.00;96603.75;5023028;28;20213;-81
2022/07/31 03:34:41;;;;;;;5.07;2.30;;;;;;;17.91;100.00;96602.09;5024354;28;20207;-81
2022/07/31 03:37:10;;;;;;;2.50;2.30;;;;;;;17.84;100.00;96596.91;5024732;28;20218;-81
2022/07/31 03:39:37;;;;;;;3.63;2.20;;;;;;;17.88;100.00;96587.06;5015461;28;20200;-81
2022/07/31 03:42:09;;;;;;;3.60;2.40;;;;;;;17.94;100.00;96591.47;5019851;28;20253;-81
2022/07/31 03:44:37;;;;;;;5.03;2.27;;;;;;;17.94;97.00;96596.09;5039212;28;20198;-80
2022/07/31 03:47:05;;;;;;;2.93;2.33;;;;;;;18.02;99.33;96604.59;5020533;28;20207;-80
2022/07/31 03:49:33;;;;;;;2.67;2.10;;;;;;;17.91;100.00;96594.72;5024295;28;20227;-81
2022/07/31 03:52:01;;;;;;;2.77;2.20;;;;;;;17.80;100.00;96590.31;5020231;28;20210;-80
2022/07/31 03:54:29;;;;;;;2.70;2.00;;;;;;;17.72;100.00;96588.13;5017777;28;20212;-81
2022/07/31 03:57:08;;;;;;;2.67;2.30;;;;;;;17.72;100.00;96599.88;5019754;28;20225;-81
2022/07/31 03:59:36;;;;;;;2.40;2.20;;;;;;;17.68;100.00;96598.78;5021982;28;20199;-81
2022/07/31 04:02:06;;;;;;;4.37;2.47;;;;;;;17.62;100.00;96601.75;5020264;28;20217;-81
2022/07/31 04:04:43;;;;;;;6.00;2.40;;;;;;;17.56;100.00;96597.31;5022828;28;20297;-80
2022/07/31 04:07:10;;;;;;;2.90;2.60;;;;;;;17.55;100.00;96601.16;5020749;28;20262;-81
2022/07/31 04:09:39;;;;;;;3.23;2.67;;;;;;;17.54;100.00;96597.59;5023445;28;20227;-81
2022/07/31 04:12:07;;;;;;;3.07;2.03;;;;;;;17.51;100.00;96600.06;5023759;28;20207;-81
2022/07/31 04:14:34;;;;;;;2.40;2.20;;;;;;;17.56;100.00;96597.31;5018017;28;20297;-81
2022/07/31 04:17:01;;;;;;;4.87;2.53;;;;;;;17.52;100.00;96599.78;5022521;28;20227;-81
2022/07/31 04:19:29;;;;;;;4.83;2.37;;;;;;;17.58;100.00;96595.97;5013452;28;20321;-81
2022/07/31 04:21:57;;;;;;;2.60;2.30;;;;;;;17.57;100.00;96605.25;5037602;28;20258;-80
2022/07/31 04:24:24;;;;;;;2.63;2.10;;;;;;;17.46;100.00;96605.47;5027603;28;20217;-81
2022/07/31 04:26:57;;;;;;;4.43;2.33;;;;;;;17.48;100.00;96609.59;5026176;28;20211;-81
2022/07/31 04:29:32;;;;;;;3.93;2.27;;;;;;;17.53;100.00;96614.22;5024980;28;20229;-81
2022/07/31 04:31:59;;;;;;;3.53;2.30;;;;;;;17.55;100.00;96622.97;5023018;28;20263;-81
2022/07/31 04:34:32;;;;;;;4.07;2.47;;;;;;;17.56;100.00;96624.63;5024268;28;20274;-81
2022/07/31 04:37:00;;;;;;;2.60;2.40;;;;;;;17.55;100.00;96618.34;5059335;28;20303;-81
2022/07/31 04:39:27;;;;;;;3.43;2.37;;;;;;;17.45;100.00;96623.75;5058534;28;20294;-80
2022/07/31 04:41:56;;;;;;;2.63;2.23;;;;;;;17.42;100.00;96623.50;5027808;28;20234;-80
2022/07/31 04:44:24;;;;;;;5.43;2.20;;;;;;;17.45;100.00;96636.59;5022164;28;20226;-81
2022/07/31 04:46:59;;;;;;;3.00;2.40;;;;;;;17.49;100.00;96624.88;5019234;28;20203;-81
2022/07/31 04:49:26;;;;;;;2.30;2.10;;;;;;;17.48;100.00;96619.69;5041404;28;20299;-80
2022/07/31 04:51:53;;;;;;;3.30;2.53;;;;;;;17.45;100.00;96625.66;5024147;28;20219;-81
2022/07/31 04:54:21;;;;;;;4.80;2.47;;;;;;;17.43;100.00;96620.50;5053266;28;20199;-81
2022/07/31 04:56:48;;;;;;;4.17;2.30;;;;;;;17.47;100.00;96618.03;5021271;28;20223;-80
2022/07/31 04:59:19;;;;;;;2.53;2.20;;;;;;;17.46;100.00;96619.13;5023587;28;20211;-81
2022/07/31 05:01:48;;;;;;;2.60;2.40;;;;;;;17.46;100.00;96616.41;5015301;28;20199;-80
2022/07/31 05:04:18;;;;;;;2.97;2.43;;;;;;;17.49;100.00;96619.44;5021030;28;20206;-81
2022/07/31 05:06:47;;;;;;;2.37;2.10;;;;;;;17.52;100.00;96615.34;5057690;28;20218;-81
2022/07/31 05:09:17;;;;;;;3.70;2.23;;;;;;;17.43;100.00;96614.22;5019030;28;20241;-81
2022/07/31 05:11:45;;;;;;;3.37;2.43;;;;;;;17.37;100.00;96607.91;5013965;28;20228;-81
2022/07/31 05:14:15;;;;;;;2.80;2.47;;;;;;;17.33;100.00;96601.34;5022499;28;20207;-80
2022/07/31 05:16:44;;;;;;;3.67;2.20;;;;;;;17.35;100.00;96604.63;5022605;28;20285;-80
2022/07/31 05:19:12;;;;;;;4.33;2.63;;;;;;;17.11;100.00;96598.78;5023265;28;20227;-81
2022/07/31 05:21:59;;;;;;;5.20;2.70;;;;;;;17.15;100.00;96599.91;5020850;28;20217;-80
2022/07/31 05:24:43;;;;;;;3.33;2.50;;;;;;;17.12;100.00;96594.13;5022814;28;20213;-81
2022/07/31 05:27:11;;;;;;;5.87;2.50;;;;;;;17.09;100.00;96595.50;5016921;28;20199;-80
2022/07/31 05:29:41;;;;;;;6.23;2.77;;;;;;;17.12;100.00;96599.59;5033481;28;20247;-81
2022/07/31 05:32:10;;;;;;;2.87;2.50;;;;;;;17.10;100.00;96597.13;5026957;28;20194;-81
2022/07/31 05:34:38;;;;;;;2.90;2.60;;;;;;;17.14;100.00;96597.44;5040405;28;20212;-80
2022/07/31 05:37:05;;;;;;;3.97;2.50;;;;;;;17.14;100.00;96603.72;5058099;28;20305;-80
2022/07/31 05:39:35;;;;;;;3.13;2.40;;;;;;;17.10;100.00;96596.34;5022167;28;20210;-80
2022/07/31 05:42:21;;;;;;;3.10;2.40;;;;;;;17.08;100.00;96599.31;5020706;28;20218;-80
2022/07/31 05:45:00;;;;;;;3.83;2.60;;;;;;;17.11;100.00;96606.13;5016432;28;20210;-81
2022/07/31 05:47:28;;;;;;;3.77;2.70;;;;;;;17.18;100.00;96604.81;5024401;28;20309;-80
2022/07/31 05:49:55;;;;;;;3.73;2.50;;;;;;;17.15;100.00;96607.25;5056836;28;20245;-81
2022/07/31 05:52:22;;;;;;;3.90;2.70;;;;;;;17.21;100.00;96604.28;5023872;28;20207;-81
2022/07/31 05:55:08;;;;;;;3.00;2.40;;;;;;;17.30;100.00;96608.16;5020261;28;20226;-81
2022/07/31 05:57:55;;;;;;;6.03;3.00;;;;;;;17.29;100.00;96597.50;5023613;28;20219;-80
2022/07/31 06:00:23;;;;;;;3.93;2.47;;;;;;;17.37;100.00;96600.53;5022312;28;20306;-81
2022/07/31 06:02:51;;;;;;;3.93;2.43;;;;;;;17.47;100.00;96607.13;5020255;28;20271;-81
2022/07/31 06:05:38;;;;;;;3.03;2.40;;;;;;;17.50;100.00;96612.06;5019353;28;20340;-81
2022/07/31 06:08:06;;;;;;;2.70;2.50;;;;;;;17.38;100.00;96602.19;5050236;28;20244;-80
2022/07/31 06:10:37;;;;;;;2.73;2.50;;;;;;;17.35;100.00;96602.69;5027363;28;20221;-81
2022/07/31 06:13:06;;;;;;;2.70;2.50;;;;;;;17.40;100.00;96600.00;5019030;28;20237;-81
2022/07/31 06:15:33;;;;;;;3.20;2.67;;;;;;;17.47;100.00;96597.03;5018815;28;20222;-81
2022/07/31 06:18:02;;;;;;;3.93;2.50;;;;;;;17.50;100.00;96595.69;5022565;28;20294;-81
2022/07/31 06:20:29;;;;;;;3.10;2.40;;;;;;;17.54;100.00;96592.13;5019916;28;20239;-81
2022/07/31 06:22:57;;;;;;;3.93;2.53;;;;;;;17.56;100.00;96600.06;5024255;28;20211;-81
2022/07/31 06:25:27;;;;;;;3.47;2.50;;;;;;;17.61;100.00;96594.59;5016287;28;20207;-81
2022/07/31 06:27:55;;;;;;;5.50;2.33;;;;;;;17.66;100.00;96600.94;5052375;28;20298;-80
2022/07/31 06:30:22;;;;;;;2.90;2.47;;;;;;;17.71;100.00;96597.41;5020768;28;20214;-81
2022/07/31 06:32:49;;;;;;;4.50;2.77;;;;;;;17.78;100.00;96598.78;5023378;28;20223;-81
2022/07/31 06:35:18;;;;;;;3.23;2.40;;;;;;;17.84;100.00;96598.81;5022423;28;20226;-81
2022/07/31 06:38:07;;;;;;;3.50;2.50;;;;;;;17.93;100.00;96600.75;5015681;28;20263;-80
2022/07/31 06:40:55;;;;;;;2.73;2.53;;;;;;;17.98;100.00;96595.28;5017372;28;20202;-81
2022/07/31 06:43:34;;;;;;;6.93;2.50;;;;;;;18.01;100.00;96597.47;5015343;28;20206;-81
2022/07/31 06:46:20;;;;;;;4.27;2.73;;;;;;;18.08;100.00;96586.28;5024351;28;20286;-81
2022/07/31 06:49:22;;;;;;;4.63;2.40;;;;;;;18.17;100.00;96594.75;5021724;28;20206;-83
2022/07/31 06:51:50;;;;;;;4.00;2.33;;;;;;;18.22;100.00;96586.53;5020999;28;20224;-79
2022/07/31 06:54:18;;;;;;;3.00;2.57;;;;;;;18.30;99.59;96589.56;5015565;28;20198;-79
2022/07/31 06:56:45;;;;;;;3.27;2.60;;;;;;;18.37;99.29;96592.03;5049404;28;20257;-79
2022/07/31 06:59:12;;;;;;;3.47;2.67;;;;;;;18.43;99.37;96593.66;5025940;28;20287;-79
2022/07/31 07:01:39;;;;;;;3.40;2.90;;;;;;;18.50;100.00;96597.75;5025148;28;20199;-79
2022/07/31 07:04:06;;;;;;;3.00;2.70;;;;;;;18.58;100.00;96592.84;5022101;28;20191;-79
2022/07/31 07:06:34;;;;;;;5.17;2.63;;;;;;;18.58;100.00;96585.47;5024386;28;20234;-79
2022/07/31 07:09:02;;;;;;;2.77;2.57;;;;;;;18.65;100.00;96587.91;5028364;28;20203;-79
2022/07/31 07:11:30;;;;;;;3.60;2.27;;;;;;;18.70;100.00;96591.50;5022186;28;20223;-79
2022/07/31 07:13:58;;;;;;;3.80;2.30;;;;;;;18.68;100.00;96595.59;5020469;28;20203;-79
2022/07/31 07:16:25;;;;;;;4.57;2.70;;;;;;;18.69;100.00;96592.59;5011794;28;20199;-79
2022/07/31 07:18:52;;;;;;;4.67;2.40;;;;;;;18.76;100.00;96592.28;5019210;28;20236;-79
2022/07/31 07:21:19;;;;;;;4.07;2.60;;;;;;;18.74;100.00;96589.81;5020285;28;20203;-79
2022/07/31 07:23:46;;;;;;;4.80;3.07;;;;;;;18.83;100.00;96598.28;5028075;28;20201;-79
2022/07/31 07:26:26;;;;;;;5.00;2.70;;;;;;;18.87;100.00;96597.47;5020733;28;20213;-79
2022/07/31 07:28:54;;;;;;;3.67;2.70;;;;;;;18.93;100.00;96597.44;5020675;28;20203;-80
2022/07/31 07:31:21;;;;;;;3.13;2.30;;;;;;;18.94;100.00;96586.25;5022207;28;20254;-79
2022/07/31 07:33:50;;;;;;;4.37;2.60;;;;;;;19.07;100.00;96588.38;5018251;28;20203;-79
2022/07/31 07:36:22;;;;;;;2.90;2.57;;;;;;;19.13;100.00;96594.69;5020545;28;20287;-79
2022/07/31 07:38:50;;;;;;;2.70;2.50;;;;;;;19.04;100.00;96583.47;5023393;28;20246;-79
2022/07/31 07:41:18;;;;;;;2.73;2.40;;;;;;;19.03;100.00;96575.53;5017303;28;20203;-79
2022/07/31 07:43:47;;;;;;;3.23;2.47;;;;;;;19.07;100.00;96585.63;5025447;28;20210;-79
2022/07/31 07:46:14;;;;;;;3.17;2.40;;;;;;;19.10;100.00;96578.81;5023060;28;20211;-80
2022/07/31 07:48:46;;;;;;;3.80;2.70;;;;;;;19.31;100.00;96579.56;5026426;28;20294;-80
2022/07/31 07:51:18;;;;;;;3.42;2.72;;;;;;;19.61;100.00;96566.56;5024934;28;20223;-82
2022/07/31 07:53:52;;;;;;;2.90;2.60;;;;;;;19.94;100.00;96572.38;5027337;28;20206;-82
2022/07/31 07:56:45;;;;;;;4.70;2.38;;;;;;;20.57;93.72;96572.47;5014809;28;20223;-83
2022/07/31 07:59:39;;;;;;;6.63;2.42;;;;;;;20.84;87.09;96567.25;5020781;28;20239;-83
2022/07/31 08:02:40;;;;;;;3.80;3.35;;;;;;;20.96;85.89;96577.84;5025112;28;20210;-83
2022/07/31 08:05:08;;;;;;;3.60;3.25;;;;;;;21.14;83.44;96569.69;5019407;28;20206;-82
2022/07/31 08:07:37;;;;;;;4.15;2.80;;;;;;;21.23;82.17;96571.81;5027383;28;20199;-83
2022/07/31 08:10:09;;;;;;;3.10;2.40;;;;;;;21.24;80.13;96570.72;5022380;28;20253;-83
2022/07/31 08:12:50;;;;;;;4.13;2.72;;;;;;;21.65;78.96;96563.59;5022381;28;20312;-82
2022/07/31 08:15:37;;;;;;;2.60;2.33;;;;;;;22.00;76.97;96566.97;5029753;28;20220;-83
2022/07/31 08:18:10;;;;;;;3.72;2.53;;;;;;;22.59;77.25;96567.13;5024984;28;20203;-82
2022/07/31 08:20:38;;;;;;;2.50;2.30;;;;;;;22.99;73.80;96567.53;5021645;28;20223;-82
2022/07/31 08:23:06;;;;;;;2.40;2.20;;;;;;;23.43;69.99;96555.91;5018077;28;20199;-82
2022/07/31 08:25:33;;;;;;;2.78;2.40;;;;;;;23.65;67.71;96557.94;5020959;28;20231;-82
2022/07/31 08:28:02;;;;;;;2.85;2.10;;;;;;;23.68;67.73;96551.84;5023409;28;20199;-82
2022/07/31 08:30:29;;;;;;;2.58;2.38;;;;;;;23.71;66.79;96551.22;5022974;28;20210;-83
2022/07/31 08:32:58;;;;;;;4.65;2.80;;;;;;;23.91;63.86;96545.22;5026546;28;20229;-82
2022/07/31 08:35:45;;;;;;;3.17;2.28;;;;;;;24.24;60.75;96542.31;5026965;28;20215;-82
2022/07/31 08:38:12;;;;;;;2.70;2.50;;;;;;;24.18;61.91;96543.50;5060650;28;20202;-82
2022/07/31 08:40:47;;;;;;;4.95;2.50;;;;;;;24.14;65.22;96557.97;5026589;28;20203;-83
2022/07/31 08:43:15;;;;;;;5.95;2.97;;;;;;;24.24;66.62;96553.34;5025923;28;20203;-82
2022/07/31 08:45:42;;;;;;;5.25;2.78;;;;;;;24.44;64.36;96550.09;5018579;28;20285;-82
2022/07/31 08:48:24;;;;;;;3.10;2.40;;;;;;;24.45;63.11;96548.97;5017489;28;20206;-82
2022/07/31 08:50:54;;;;;;;3.10;2.30;;;;;;;24.26;62.37;96537.28;5031614;28;20203;-82
2022/07/31 08:53:50;;;;;;;4.40;2.60;;;;;;;24.16;62.85;96540.28;5013640;28;20204;-82
2022/07/31 08:56:20;;;;;;;5.88;2.63;;;;;;;24.20;62.56;96538.50;5059950;28;20222;-82
2022/07/31 08:58:47;;;;;;;3.15;2.60;;;;;;;24.25;62.65;96535.66;5030219;28;20293;-82
2022/07/31 09:01:14;;;;;;;5.25;2.90;;;;;;;24.25;60.62;96538.41;5024506;28;20387;-82
2022/07/31 09:03:44;;;;;;;4.63;3.25;;;;;;;24.35;60.95;96535.41;5021024;28;20249;-82
2022/07/31 09:06:15;;;;;;;3.90;2.65;;;;;;;24.45;59.56;96537.91;5023665;28;20261;-82
2022/07/31 09:08:42;;;;;;;3.35;2.50;;;;;;;24.68;61.11;96531.22;5026253;28;20207;-82
2022/07/31 09:11:13;;;;;;;3.75;2.47;;;;;;;24.86;60.61;96535.72;5027243;28;20195;-82
2022/07/31 09:13:53;;;;;;;3.72;2.45;;;;;;;25.16;59.80;96547.94;5023373;28;20248;-82
2022/07/31 09:16:44;;;;;;;3.15;2.55;;;;;;;25.37;57.72;96541.81;5021416;28;20211;-82
2022/07/31 09:19:14;;;;;;;3.20;2.60;;;;;;;25.41;58.52;96532.59;5059008;28;20230;-82
2022/07/31 09:21:42;;;;;;;3.63;2.58;;;;;;;25.51;60.38;96543.34;5023510;28;20210;-82
2022/07/31 09:24:11;;;;;;;3.08;2.50;;;;;;;25.66;58.99;96546.81;5019703;28;20207;-82
2022/07/31 09:26:40;;;;;;;3.40;3.10;;;;;;;25.63;60.38;96535.25;5020182;28;20211;-82
2022/07/31 09:29:10;;;;;;;3.78;2.97;;;;;;;25.83;61.77;96527.50;4978519;28;20336;-82
2022/07/31 09:31:38;;;;;;;2.60;2.40;;;;;;;26.16;60.02;96525.06;4960311;28;20225;-82
2022/07/31 09:34:47;;;;;;;2.67;2.35;;;;;;;26.51;60.13;96520.34;4960521;28;20228;-80
2022/07/31 09:37:19;;;;;;;3.58;2.58;;;;;;;26.86;56.23;96516.34;4963014;28;20213;-83
2022/07/31 09:40:09;;;;;;;2.88;2.50;;;;;;;27.03;57.33;96513.56;4954789;28;20340;-82
2022/07/31 09:42:55;;;;;;;2.65;2.45;;;;;;;27.09;54.78;96511.41;4959192;28;20220;-82
2022/07/31 09:45:25;;;;;;;2.97;2.60;;;;;;;27.23;55.76;96508.41;4955830;28;20300;-82
2022/07/31 09:48:04;;;;;;;4.07;2.55;;;;;;;27.43;56.39;96507.66;4970447;28;20205;-82
2022/07/31 09:50:35;;;;;;;4.20;2.30;;;;;;;27.58;55.40;96498.78;4953035;28;20264;-82
2022/07/31 09:53:02;;;;;;;3.13;2.40;;;;;;;27.61;54.44;96503.69;4968096;28;20251;-83
2022/07/31 09:55:32;;;;;;;3.03;2.63;;;;;;;27.72;53.81;96502.16;4963846;28;20213;-82
2022/07/31 09:58:01;;;;;;;4.57;2.88;;;;;;;28.02;54.11;96496.53;4960780;28;20236;-82
2022/07/31 10:00:37;;;;;;;2.63;2.38;;;;;;;27.98;53.33;96490.84;4959718;28;20219;-82
2022/07/31 10:03:06;;;;;;;3.92;2.40;;;;;;;27.97;52.47;96485.63;4955366;28;20212;-82
2022/07/31 10:05:36;;;;;;;2.50;2.30;;;;;;;27.86;52.41;96490.78;4962031;28;20202;-82
2022/07/31 10:08:05;;;;;;;4.00;2.42;;;;;;;27.95;50.54;96485.97;4954997;28;20216;-82
2022/07/31 10:10:53;;;;;;;2.83;2.40;;;;;;;28.00;51.94;96496.03;4979919;28;20204;-82
2022/07/31 10:13:26;;;;;;;4.20;2.70;;;;;;;27.86;50.11;96496.31;4957919;28;20316;-83
2022/07/31 10:15:59;;;;;;;4.50;2.20;;;;;;;27.51;51.07;96487.38;4964072;28;20292;-83
2022/07/31 10:19:00;;;;;;;3.80;2.20;;;;;;;27.68;53.24;96497.59;4959423;28;20229;-83
2022/07/31 10:22:03;;;;;;;3.38;2.40;;;;;;;27.56;53.84;96489.97;4956656;28;20212;-83
2022/07/31 10:24:44;;;;;;;2.30;2.10;;;;;;;27.65;52.41;96499.06;4963398;28;20220;-83
2022/07/31 10:27:12;;;;;;;4.55;2.33;;;;;;;27.45;50.94;96494.28;4966919;28;20216;-83
2022/07/31 10:29:42;;;;;;;2.78;2.58;;;;;;;27.38;52.27;96502.31;4955501;28;20210;-83
2022/07/31 10:32:10;;;;;;;4.68;2.85;;;;;;;27.59;53.09;96494.88;4963554;28;20217;-83
2022/07/31 10:34:46;;;;;;;4.60;2.40;;;;;;;27.92;52.30;96486.63;4962718;28;20212;-82
2022/07/31 10:37:39;;;;;;;2.67;2.20;;;;;;;28.44;49.93;96487.03;4963402;28;20220;-81
2022/07/31 10:40:25;;;;;;;2.20;2.05;;;;;;;28.54;46.60;96478.28;4971065;28;20213;-82
2022/07/31 10:43:11;;;;;;;3.92;2.05;;;;;;;28.49;45.77;96475.72;4963410;28;20212;-82
2022/07/31 10:45:46;;;;;;;5.38;2.30;;;;;;;28.28;44.33;96474.13;4960967;28;20280;-83
2022/07/31 10:48:51;;;;;;;2.95;1.95;;;;;;;27.99;45.34;96463.88;4967488;28;20209;-83
2022/07/31 10:51:46;;;;;;;3.45;2.03;;;;;;;28.11;45.15;96463.94;4965105;28;20263;-83
2022/07/31 10:54:40;;;;;;;3.70;2.10;;;;;;;28.40;43.60;96466.66;4961958;28;20217;-82
2022/07/31 10:57:29;;;;;;;4.60;2.38;;;;;;;28.57;42.91;96460.13;4963969;28;20236;-82
2022/07/31 11:00:26;;;;;;;9.77;2.50;;;;;;;28.80;43.11;96450.22;4967133;28;20201;-82
2022/07/31 11:03:14;;;;;;;4.57;2.53;;;;;;;28.98;42.19;96457.22;4959035;28;20212;-82
2022/07/31 11:06:02;;;;;;;3.65;2.30;;;;;;;29.00;40.85;96453.28;4963224;28;20204;-82
2022/07/31 11:08:54;;;;;;;5.15;2.40;;;;;;;28.95;41.84;96457.06;4967159;28;20295;-82
2022/07/31 11:11:58;;;;;;;5.07;2.17;;;;;;;28.84;41.50;96448.38;4980761;28;20228;-82
2022/07/31 11:14:42;;;;;;;3.08;2.30;;;;;;;28.79;43.52;96451.38;4966438;28;20216;-83
2022/07/31 11:17:32;;;;;;;2.40;2.20;;;;;;;28.93;43.64;96451.84;4969906;28;20220;-82
2022/07/31 11:20:24;;;;;;;2.47;2.10;;;;;;;28.66;42.56;96443.34;4962781;28;20278;-82
2022/07/31 11:23:02;;;;;;;3.63;2.30;;;;;;;28.62;42.64;96443.22;4969604;28;20212;-82
2022/07/31 11:25:32;;;;;;;6.20;2.50;;;;;;;28.73;42.56;96440.81;4968449;28;20205;-82
2022/07/31 11:28:11;;;;;;;3.63;2.30;;;;;;;28.94;43.68;96434.03;4967129;28;20204;-82
2022/07/31 11:30:50;;;;;;;2.40;2.20;;;;;;;29.03;41.19;96431.13;4958855;28;20279;-82
2022/07/31 11:33:29;;;;;;;2.97;2.10;;;;;;;29.24;41.13;96431.03;4965782;28;20303;-82
2022/07/31 11:35:57;;;;;;;2.72;2.35;;;;;;;29.52;41.57;96431.94;4960653;28;20236;-82
2022/07/31 11:38:27;;;;;;;3.38;2.30;;;;;;;29.90;40.16;96425.94;4970932;28;20209;-82
2022/07/31 11:40:55;;;;;;;3.00;2.20;;;;;;;29.78;39.59;96437.09;4964831;28;20219;-82
2022/07/31 11:43:23;;;;;;;3.40;2.20;;;;;;;29.39;41.63;96440.66;4981640;28;20211;-82
2022/07/31 11:45:52;;;;;;;2.63;1.98;;;;;;;29.18;42.25;96433.22;4963990;28;20213;-82
2022/07/31 11:48:21;;;;;;;3.65;2.53;;;;;;;29.03;42.51;96430.31;4965845;28;20208;-82
2022/07/31 11:50:49;;;;;;;2.83;2.00;;;;;;;28.94;43.09;96431.25;4966892;28;20261;-82
2022/07/31 11:53:18;;;;;;;4.55;2.00;;;;;;;28.80;42.47;96425.22;4967612;28;20228;-82
2022/07/31 11:55:47;;;;;;;2.88;2.00;;;;;;;28.63;41.93;96433.72;4965094;28;20233;-82